Time;durP1;ratioP1;P1;durP2;ratioP2;P2;SDS_P1;SDS_P2;PMS_P1;PMS_P2;Temp;Humidity;BMP_temperature;BMP_pressure;BME280_temperature;BME280_humidity;BME280_pressure;Samples;Min_cycle;Max_cycle;Signal;HPM_P1;HPM_P2
2023/01/09 00:01:40;;;;;;;39.90;19.40;;;;;;;4.38;84.00;97477.92;104984;1270;96663;-69
2023/01/09 00:04:08;;;;;;;35.40;18.60;;;;;;;4.37;84.24;97466.63;104934;1261;110561;-69
2023/01/09 00:06:36;;;;;;;46.80;21.00;;;;;;;4.38;84.23;97464.65;104824;1264;98766;-68
2023/01/09 00:09:03;;;;;;;47.50;22.70;;;;;;;4.36;83.96;97463.54;104947;1258;108692;-67
2023/01/09 00:11:30;;;;;;;55.30;26.30;;;;;;;4.32;83.98;97465.38;104889;1270;96582;-69
2023/01/09 00:13:58;;;;;;;54.90;26.50;;;;;;;4.23;83.72;97469.11;104989;1269;97233;-68
2023/01/09 00:16:25;;;;;;;61.20;28.00;;;;;;;4.15;83.88;97469.75;105028;1267;96656;-68
2023/01/09 00:18:52;;;;;;;57.60;27.20;;;;;;;4.07;83.86;97472.02;104994;1260;97484;-69
2023/01/09 00:21:19;;;;;;;65.80;29.30;;;;;;;3.98;83.82;97475.67;105047;1268;96642;-69
2023/01/09 00:23:46;;;;;;;63.30;29.60;;;;;;;3.86;83.73;97473.92;104956;1260;96569;-68
2023/01/09 00:26:16;;;;;;;69.90;29.80;;;;;;;3.72;83.53;97474.61;104960;1269;97067;-68
2023/01/09 00:28:45;;;;;;;75.20;35.50;;;;;;;3.59;84.49;97473.20;104968;1260;109787;-68
2023/01/09 00:31:13;;;;;;;109.80;35.50;;;;;;;3.54;85.43;97473.64;104881;1264;98828;-67
2023/01/09 00:34:01;;;;;;;56.80;25.30;;;;;;;3.56;86.53;97466.09;105078;1254;108574;-68
2023/01/09 00:36:28;;;;;;;55.90;25.10;;;;;;;3.61;86.93;97457.61;105158;1257;97723;-66
2023/01/09 00:38:56;;;;;;;50.90;24.90;;;;;;;3.63;86.57;97457.23;105118;1261;97431;-65
2023/01/09 00:41:30;;;;;;;59.50;29.00;;;;;;;3.67;86.47;97450.73;105142;1268;96727;-65
2023/01/09 00:44:03;;;;;;;66.20;30.60;;;;;;;3.67;85.88;97453.13;105003;1273;98288;-65
2023/01/09 00:46:34;;;;;;;60.30;30.30;;;;;;;3.65;85.88;97454.58;104891;1270;107001;-65
2023/01/09 00:49:04;;;;;;;86.10;36.00;;;;;;;3.67;85.78;97457.18;105235;1260;97073;-66
2023/01/09 00:51:31;;;;;;;86.80;37.90;;;;;;;3.65;85.73;97457.22;105205;1258;97005;-66
2023/01/09 00:53:58;;;;;;;86.10;38.60;;;;;;;3.58;85.44;97460.76;105120;1258;96549;-65
2023/01/09 00:56:25;;;;;;;82.60;36.70;;;;;;;3.55;85.37;97460.48;105212;1263;96555;-65
2023/01/09 00:58:53;;;;;;;86.30;37.80;;;;;;;3.52;85.56;97445.95;105136;1261;96565;-67
2023/01/09 01:01:20;;;;;;;91.00;39.60;;;;;;;3.47;85.59;97436.64;105172;1258;97926;-65
2023/01/09 01:03:47;;;;;;;85.30;38.50;;;;;;;3.41;85.68;97440.45;105280;1257;96538;-65
2023/01/09 01:09:00;;;;;;;81.20;38.20;;;;;;;3.33;85.73;97440.42;104978;1261;97848;-67
2023/01/09 01:11:27;;;;;;;87.30;38.00;;;;;;;3.22;85.99;97439.05;105195;1267;96573;-66
2023/01/09 01:13:55;;;;;;;98.90;47.70;;;;;;;3.20;86.24;97451.45;105188;1257;96557;-67
2023/01/09 01:16:22;;;;;;;71.20;32.20;;;;;;;3.19;86.77;97448.54;105203;1268;96619;-67
2023/01/09 01:18:49;;;;;;;74.10;34.20;;;;;;;3.20;87.04;97447.11;104933;1254;96663;-66
2023/01/09 01:21:16;;;;;;;71.80;33.40;;;;;;;3.21;87.09;97456.20;105234;1268;96600;-66
2023/01/09 01:23:44;;;;;;;71.90;32.40;;;;;;;3.24;87.06;97452.63;105172;1258;96560;-67
2023/01/09 01:26:14;;;;;;;75.20;33.50;;;;;;;3.29;87.03;97448.71;105168;1255;99900;-66
2023/01/09 01:28:42;;;;;;;82.30;37.90;;;;;;;3.30;87.05;97432.34;104838;1263;97364;-65
2023/01/09 01:31:16;;;;;;;87.50;39.20;;;;;;;3.26;87.03;97426.83;104619;1264;110347;-66
2023/01/09 01:33:43;;;;;;;89.40;40.40;;;;;;;3.22;86.89;97437.40;104995;1270;98925;-65
2023/01/09 01:36:11;;;;;;;88.60;44.20;;;;;;;3.20;86.80;97428.80;104997;1270;96591;-66
2023/01/09 01:38:37;;;;;;;90.10;39.90;;;;;;;3.22;87.09;97426.45;104940;1260;97229;-66
2023/01/09 01:41:06;;;;;;;144.80;53.90;;;;;;;3.24;87.11;97429.94;104942;1268;97752;-66
2023/01/09 01:43:51;;;;;;;80.50;37.50;;;;;;;3.27;87.21;97427.24;104983;1259;96635;-67
2023/01/09 01:46:18;;;;;;;87.00;39.60;;;;;;;3.31;87.44;97425.07;104807;1264;96968;-68
2023/01/09 01:48:47;;;;;;;107.60;44.30;;;;;;;3.33;87.53;97439.38;104903;1261;96574;-68
2023/01/09 01:51:17;;;;;;;82.10;35.20;;;;;;;3.35;87.28;97440.91;104740;1261;96650;-67
2023/01/09 01:53:50;;;;;;;84.00;37.70;;;;;;;3.34;87.02;97442.13;104880;1261;96816;-68
2023/01/09 01:56:24;;;;;;;88.40;38.10;;;;;;;3.29;86.89;97435.27;104768;1274;109911;-70
2023/01/09 01:59:06;;;;;;;83.20;39.60;;;;;;;3.23;86.74;97431.52;105114;1261;99304;-67
2023/01/09 02:01:39;;;;;;;79.90;36.00;;;;;;;3.14;87.08;97428.87;104878;1264;109490;-67
2023/01/09 02:04:07;;;;;;;83.90;39.20;;;;;;;3.05;87.90;97431.92;104654;1262;96839;-67
2023/01/09 02:06:36;;;;;;;73.60;34.50;;;;;;;2.96;87.96;97428.36;105052;1258;96574;-67
2023/01/09 02:09:04;;;;;;;105.00;43.50;;;;;;;2.87;87.97;97434.46;104908;1264;109063;-67
2023/01/09 02:11:33;;;;;;;111.80;46.60;;;;;;;2.76;87.71;97436.23;104869;1262;98206;-67
2023/01/09 02:14:01;;;;;;;119.10;50.40;;;;;;;2.71;87.86;97432.41;104838;1264;107651;-66
2023/01/09 02:16:46;;;;;;;118.10;51.90;;;;;;;2.68;87.55;97435.16;104795;1267;97924;-66
2023/01/09 02:19:22;;;;;;;96.50;43.90;;;;;;;2.64;88.11;97427.10;104594;1264;98410;-67
2023/01/09 02:21:49;;;;;;;108.70;47.80;;;;;;;2.67;87.81;97418.77;104865;1271;110405;-67
2023/01/09 02:24:55;;;;;;;97.90;42.60;;;;;;;2.67;88.28;97410.88;104945;1269;96638;-67
2023/01/09 02:27:35;;;;;;;91.30;42.70;;;;;;;2.54;88.63;97391.05;104460;1273;107547;-66
2023/01/09 02:30:14;;;;;;;80.80;36.60;;;;;;;2.46;88.82;97383.04;104558;1265;97847;-66
2023/01/09 02:32:57;;;;;;;90.50;41.30;;;;;;;2.43;89.04;97374.80;104569;1261;97988;-66
2023/01/09 02:35:33;;;;;;;89.50;42.20;;;;;;;2.45;88.91;97370.34;104550;1266;110568;-66
2023/01/09 02:38:14;;;;;;;90.50;41.80;;;;;;;2.45;88.59;97365.20;104500;1267;97671;-67
2023/01/09 02:40:52;;;;;;;87.40;38.60;;;;;;;2.44;88.57;97367.97;104579;1261;108524;-67
2023/01/09 02:43:20;;;;;;;79.70;38.10;;;;;;;2.36;88.61;97374.62;104531;1266;96651;-66
2023/01/09 02:45:46;;;;;;;97.30;41.40;;;;;;;2.31;88.63;97377.46;104508;1267;97063;-67
2023/01/09 02:48:14;;;;;;;96.40;42.60;;;;;;;2.30;88.64;97373.31;104508;1284;97888;-67
2023/01/09 02:51:00;;;;;;;88.50;41.40;;;;;;;2.30;88.83;97371.20;104539;1266;96639;-67
2023/01/09 02:53:43;;;;;;;91.30;43.20;;;;;;;2.32;89.08;97365.55;104559;1261;109829;-67
2023/01/09 02:56:40;;;;;;;93.70;43.50;;;;;;;2.35;89.17;97370.23;104424;1270;96673;-67
2023/01/09 02:59:27;;;;;;;90.30;40.00;;;;;;;2.39;89.20;97365.50;104584;1274;97365;-66
2023/01/09 03:02:06;;;;;;;86.90;40.70;;;;;;;2.43;89.36;97355.06;104563;1266;110810;-68
2023/01/09 03:04:46;;;;;;;91.20;41.60;;;;;;;2.45;89.32;97353.14;104946;1259;98926;-68
2023/01/09 03:07:30;;;;;;;82.10;39.70;;;;;;;2.48;89.35;97349.15;104804;1261;108144;-67
2023/01/09 03:10:07;;;;;;;81.90;38.00;;;;;;;2.53;89.07;97338.40;104957;1261;97848;-67
2023/01/09 03:12:37;;;;;;;72.20;34.90;;;;;;;2.59;89.45;97324.77;104788;1269;96623;-68
2023/01/09 03:15:09;;;;;;;70.30;34.10;;;;;;;2.66;89.33;97319.58;105005;1271;110146;-71
2023/01/09 03:17:42;;;;;;;88.40;38.00;;;;;;;2.67;89.05;97309.94;104792;1264;97959;-72
2023/01/09 03:20:17;;;;;;;79.90;35.60;;;;;;;2.69;88.78;97308.86;105022;1261;108747;-66
2023/01/09 03:22:53;;;;;;;82.20;37.70;;;;;;;2.70;88.95;97312.14;104982;1259;96568;-67
2023/01/09 03:25:26;;;;;;;63.80;30.60;;;;;;;2.65;88.80;97310.55;105040;1261;97460;-67
2023/01/09 03:28:03;;;;;;;56.40;28.50;;;;;;;2.48;88.86;97306.43;104969;1269;110682;-66
2023/01/09 03:30:42;;;;;;;78.40;35.50;;;;;;;2.28;88.99;97307.38;105159;1268;98718;-67
2023/01/09 03:33:11;;;;;;;97.70;44.30;;;;;;;2.16;89.47;97304.50;105195;1258;108554;-67
2023/01/09 03:35:46;;;;;;;88.50;42.00;;;;;;;2.16;89.50;97300.46;105216;1258;96563;-66
2023/01/09 03:38:16;;;;;;;91.10;40.40;;;;;;;2.12;89.52;97302.44;104983;1261;97064;-67
2023/01/09 03:40:43;;;;;;;78.20;34.70;;;;;;;2.11;89.56;97297.27;105106;1257;96530;-68
2023/01/09 03:43:10;;;;;;;85.60;39.00;;;;;;;2.11;90.05;97289.02;105154;1260;97061;-66
2023/01/09 03:45:37;;;;;;;82.30;36.60;;;;;;;2.11;89.81;97281.98;105024;1261;97898;-67
2023/01/09 03:48:05;;;;;;;79.60;37.70;;;;;;;2.09;90.13;97278.39;105125;1258;97822;-68
2023/01/09 03:50:32;;;;;;;78.50;35.00;;;;;;;2.09;90.08;97276.17;105186;1258;97943;-67
2023/01/09 03:52:59;;;;;;;80.80;37.20;;;;;;;2.09;90.75;97272.98;105149;1258;97850;-66
2023/01/09 03:55:26;;;;;;;81.90;36.80;;;;;;;2.15;90.51;97281.88;105149;1258;96693;-67
2023/01/09 03:57:53;;;;;;;78.10;36.50;;;;;;;2.19;90.33;97277.10;105140;1256;97486;-66
2023/01/09 04:00:21;;;;;;;76.10;37.40;;;;;;;2.21;90.33;97273.58;105204;1269;96625;-66
2023/01/09 04:02:48;;;;;;;76.50;37.90;;;;;;;2.26;90.34;97274.42;105117;1260;110754;-66
2023/01/09 04:05:15;;;;;;;83.60;39.20;;;;;;;2.28;90.67;97264.21;105145;1254;97627;-66
2023/01/09 04:07:42;;;;;;;80.30;36.40;;;;;;;2.32;90.71;97248.98;105155;1263;97892;-66
2023/01/09 04:10:10;;;;;;;63.30;30.40;;;;;;;2.34;90.65;97242.34;105138;1268;97853;-66
2023/01/09 04:12:37;;;;;;;67.50;34.80;;;;;;;2.33;90.61;97236.41;105169;1257;97886;-67
2023/01/09 04:15:05;;;;;;;66.80;31.90;;;;;;;2.36;90.86;97238.69;105132;1261;97863;-66
2023/01/09 04:17:32;;;;;;;60.80;29.20;;;;;;;2.44;91.67;97229.85;105277;1265;97408;-66
2023/01/09 04:19:59;;;;;;;56.00;26.80;;;;;;;2.52;91.80;97220.70;105314;1255;96598;-66
2023/01/09 04:22:26;;;;;;;57.70;26.80;;;;;;;2.59;91.49;97217.05;105336;1257;97863;-66
2023/01/09 04:24:54;;;;;;;48.20;22.50;;;;;;;2.62;91.69;97214.53;105441;1265;96667;-66
2023/01/09 04:27:23;;;;;;;57.00;28.40;;;;;;;2.68;91.47;97213.67;105322;1257;109997;-66
2023/01/09 04:29:53;;;;;;;52.80;27.40;;;;;;;2.73;91.31;97209.48;105340;1264;98228;-68
2023/01/09 04:32:20;;;;;;;42.80;22.10;;;;;;;2.75;91.34;97204.66;105280;1257;96618;-69
2023/01/09 04:34:47;;;;;;;52.40;24.20;;;;;;;2.79;91.67;97196.70;105167;1257;96545;-68
2023/01/09 04:37:14;;;;;;;57.50;27.50;;;;;;;2.82;91.36;97192.16;105237;1255;96605;-69
2023/01/09 04:39:44;;;;;;;51.80;23.60;;;;;;;2.85;91.23;97190.10;105136;1257;96529;-71
2023/01/09 04:42:12;;;;;;;56.10;26.90;;;;;;;2.89;91.24;97192.47;105051;1257;373523;-67
2023/01/09 04:44:38;;;;;;;58.10;28.50;;;;;;;2.97;91.46;97192.96;105265;1257;96567;-67
2023/01/09 04:47:06;;;;;;;58.10;28.40;;;;;;;3.04;91.18;97192.67;105283;1260;97852;-67
2023/01/09 04:49:33;;;;;;;53.50;26.40;;;;;;;3.14;91.25;97186.51;105258;1257;97741;-67
2023/01/09 04:51:59;;;;;;;50.80;26.30;;;;;;;3.28;91.93;97186.02;105115;1273;97248;-67
2023/01/09 04:54:26;;;;;;;49.20;22.70;;;;;;;3.42;91.87;97181.36;105290;1257;96638;-68
2023/01/09 04:56:53;;;;;;;32.80;16.90;;;;;;;3.56;91.67;97180.09;105321;1267;96622;-67
2023/01/09 04:59:20;;;;;;;44.10;23.00;;;;;;;3.71;91.38;97179.98;105068;1258;96884;-67
2023/01/09 05:01:47;;;;;;;45.70;23.80;;;;;;;3.83;90.92;97173.09;105319;1274;96711;-68
2023/01/09 05:04:15;;;;;;;48.80;24.30;;;;;;;3.88;90.32;97167.02;105327;1257;96563;-68
2023/01/09 05:06:41;;;;;;;48.40;24.60;;;;;;;3.93;89.94;97163.94;105244;1264;96574;-67
2023/01/09 05:09:08;;;;;;;48.70;24.90;;;;;;;3.99;89.88;97158.75;105259;1257;97726;-67
2023/01/09 05:11:35;;;;;;;51.20;25.80;;;;;;;4.05;89.70;97156.17;105293;1267;96639;-68
2023/01/09 05:14:02;;;;;;;42.50;20.60;;;;;;;4.09;89.78;97150.08;105268;1258;97470;-68
2023/01/09 05:16:30;;;;;;;32.80;17.00;;;;;;;4.14;90.16;97147.24;105321;1251;97854;-68
2023/01/09 05:18:59;;;;;;;36.30;18.50;;;;;;;4.25;91.19;97147.57;105321;1257;96565;-67
2023/01/09 05:21:26;;;;;;;36.50;18.50;;;;;;;4.35;90.40;97151.64;105117;1260;97764;-67
2023/01/09 05:23:53;;;;;;;43.20;21.90;;;;;;;4.38;90.25;97143.48;105385;1264;96577;-67
2023/01/09 05:26:24;;;;;;;51.30;22.10;;;;;;;4.39;90.01;97145.33;105339;1264;96566;-67
2023/01/09 05:28:55;;;;;;;57.10;23.90;;;;;;;4.37;90.07;97140.05;105177;1264;109370;-68
2023/01/09 05:31:24;;;;;;;51.30;26.60;;;;;;;4.39;89.76;97135.82;105314;1265;97629;-68
2023/01/09 05:33:52;;;;;;;56.50;24.60;;;;;;;4.39;89.55;97133.17;105066;1251;96851;-67
2023/01/09 05:36:19;;;;;;;48.30;22.50;;;;;;;4.44;89.79;97134.89;105152;1266;111073;-67
2023/01/09 05:38:46;;;;;;;44.30;20.70;;;;;;;4.55;90.04;97131.94;105219;1257;96555;-65
2023/01/09 05:41:13;;;;;;;40.40;18.50;;;;;;;4.70;90.09;97132.91;105235;1264;96566;-65
2023/01/09 05:43:40;;;;;;;38.90;19.90;;;;;;;4.90;89.91;97133.62;105226;1257;97847;-65
2023/01/09 05:46:07;;;;;;;35.10;17.70;;;;;;;5.08;89.77;97137.86;105332;1258;96536;-66
2023/01/09 05:48:34;;;;;;;37.40;18.50;;;;;;;5.24;89.35;97135.45;105180;1257;97905;-66
2023/01/09 05:51:01;;;;;;;37.30;17.60;;;;;;;5.37;88.92;97131.67;105150;1257;97847;-67
2023/01/09 05:53:28;;;;;;;36.90;17.00;;;;;;;5.44;88.72;97134.71;105140;1257;98120;-67
2023/01/09 05:55:54;;;;;;;30.30;16.10;;;;;;;5.48;88.79;97134.05;105118;1257;96552;-67
2023/01/09 05:58:21;;;;;;;33.00;17.00;;;;;;;5.52;88.57;97135.08;105127;1251;96903;-67
2023/01/09 06:00:48;;;;;;;30.10;16.20;;;;;;;5.56;88.01;97131.29;105207;1257;97408;-68
2023/01/09 06:03:15;;;;;;;32.30;16.00;;;;;;;5.57;87.95;97127.22;105180;1257;96533;-69
2023/01/09 06:05:42;;;;;;;33.60;16.50;;;;;;;5.58;88.22;97126.80;105216;1257;96766;-67
2023/01/09 06:08:10;;;;;;;29.00;15.20;;;;;;;5.59;88.22;97129.34;105201;1258;96580;-68
2023/01/09 06:10:37;;;;;;;31.20;16.40;;;;;;;5.60;87.99;97125.73;105228;1257;97476;-67
2023/01/09 06:13:04;;;;;;;29.30;16.90;;;;;;;5.64;88.01;97129.39;105206;1264;97861;-67
2023/01/09 06:15:31;;;;;;;27.10;14.60;;;;;;;5.71;88.10;97128.21;105160;1260;96635;-67
2023/01/09 06:17:58;;;;;;;30.30;16.70;;;;;;;5.77;87.72;97123.90;105334;1257;96523;-67
2023/01/09 06:20:25;;;;;;;32.20;16.50;;;;;;;5.84;87.84;97126.33;105011;1260;110438;-67
2023/01/09 06:22:52;;;;;;;27.20;14.30;;;;;;;5.93;88.14;97123.38;105214;1258;98113;-68
2023/01/09 06:25:19;;;;;;;21.70;12.90;;;;;;;6.05;88.38;97125.60;105129;1257;97840;-67
2023/01/09 06:27:48;;;;;;;25.30;12.40;;;;;;;6.19;88.44;97123.73;105135;1251;96583;-67
2023/01/09 06:30:17;;;;;;;23.20;12.40;;;;;;;6.31;88.07;97123.52;105115;1253;96662;-67
2023/01/09 06:32:47;;;;;;;15.40;8.50;;;;;;;6.38;87.93;97125.23;105141;1258;109781;-68
2023/01/09 06:35:19;;;;;;;16.50;9.30;;;;;;;6.47;88.48;97124.60;104696;1269;98184;-68
2023/01/09 06:37:49;;;;;;;8.00;4.20;;;;;;;6.61;89.25;97125.08;105022;1257;108778;-68
2023/01/09 06:40:19;;;;;;;9.40;5.90;;;;;;;6.75;89.59;97121.91;105061;1257;96564;-68
2023/01/09 06:42:48;;;;;;;7.10;4.80;;;;;;;6.84;90.08;97124.52;105125;1257;96538;-69
2023/01/09 06:45:16;;;;;;;10.80;6.40;;;;;;;6.91;89.73;97122.55;104906;1259;109568;-69
2023/01/09 06:47:43;;;;;;;8.10;4.90;;;;;;;6.98;89.81;97126.39;105201;1257;99142;-70
2023/01/09 06:50:11;;;;;;;11.00;5.20;;;;;;;7.04;89.59;97126.71;105260;1257;96651;-70
2023/01/09 06:52:38;;;;;;;5.90;4.20;;;;;;;7.11;89.33;97131.37;105212;1251;97751;-70
2023/01/09 06:55:07;;;;;;;5.00;3.10;;;;;;;7.17;89.18;97131.59;105167;1257;97820;-70
2023/01/09 06:57:34;;;;;;;5.40;2.30;;;;;;;7.23;89.37;97138.42;105190;1257;109896;-69
2023/01/09 07:00:02;;;;;;;6.10;4.50;;;;;;;7.28;89.26;97140.19;105316;1257;96631;-71
2023/01/09 07:02:29;;;;;;;5.80;4.00;;;;;;;7.31;89.02;97143.34;105445;1257;108144;-69
2023/01/09 07:04:56;;;;;;;5.10;3.30;;;;;;;7.32;89.21;97141.34;105386;1257;97438;-69
2023/01/09 07:07:23;;;;;;;6.60;4.30;;;;;;;7.32;89.04;97143.52;105398;1257;96987;-69
2023/01/09 07:09:50;;;;;;;7.70;4.00;;;;;;;7.30;89.00;97142.80;105154;1257;96549;-69
2023/01/09 07:12:17;;;;;;;11.10;4.80;;;;;;;7.27;89.31;97149.55;105319;1255;97885;-71
2023/01/09 07:14:44;;;;;;;10.60;4.70;;;;;;;7.26;89.24;97148.60;105229;1251;97009;-70
2023/01/09 07:17:12;;;;;;;12.20;4.90;;;;;;;7.27;89.31;97152.21;105189;1258;96534;-70
2023/01/09 07:19:39;;;;;;;11.70;6.20;;;;;;;7.28;89.21;97153.96;105205;1258;97742;-71
2023/01/09 07:22:07;;;;;;;8.10;5.00;;;;;;;7.29;89.45;97151.50;105103;1255;96630;-72
2023/01/09 07:24:34;;;;;;;8.40;5.70;;;;;;;7.29;89.66;97152.23;105204;1264;96647;-70
2023/01/09 07:27:01;;;;;;;10.50;4.40;;;;;;;7.31;89.37;97152.03;105269;1257;96624;-72
2023/01/09 07:29:29;;;;;;;6.20;3.60;;;;;;;7.32;89.32;97152.38;105276;1251;96676;-73
2023/01/09 07:31:56;;;;;;;5.30;3.50;;;;;;;7.32;89.72;97152.80;105332;1267;96632;-71
2023/01/09 07:34:23;;;;;;;5.70;3.70;;;;;;;7.32;89.62;97145.87;105246;1251;97827;-71
2023/01/09 07:36:50;;;;;;;6.20;3.70;;;;;;;7.33;89.82;97144.04;105252;1251;96624;-71
2023/01/09 07:39:17;;;;;;;7.40;4.10;;;;;;;7.34;89.87;97142.20;105291;1257;97216;-70
2023/01/09 07:41:45;;;;;;;7.80;5.20;;;;;;;7.34;89.60;97137.52;105237;1256;96628;-71
2023/01/09 07:44:13;;;;;;;8.60;4.70;;;;;;;7.34;89.65;97137.91;105217;1264;97846;-70
2023/01/09 07:46:40;;;;;;;14.00;9.00;;;;;;;7.32;89.94;97138.39;105157;1257;99146;-74
2023/01/09 07:49:08;;;;;;;8.50;4.30;;;;;;;7.30;90.06;97141.91;105116;1257;108544;-70
2023/01/09 07:51:38;;;;;;;6.20;3.90;;;;;;;7.27;90.09;97137.95;105191;1256;97466;-69
2023/01/09 07:54:05;;;;;;;9.30;5.40;;;;;;;7.23;90.36;97129.38;105205;1257;97789;-72
2023/01/09 07:56:32;;;;;;;8.30;5.40;;;;;;;7.21;90.51;97124.04;105068;1260;108748;-69
2023/01/09 07:59:00;;;;;;;10.60;6.40;;;;;;;7.22;90.61;97124.05;105255;1257;97872;-70
2023/01/09 08:01:28;;;;;;;8.50;4.90;;;;;;;7.23;90.51;97124.56;105108;1255;96566;-69
2023/01/09 08:03:55;;;;;;;9.60;5.50;;;;;;;7.25;90.49;97121.06;105254;1257;96596;-70
2023/01/09 08:06:22;;;;;;;8.80;5.30;;;;;;;7.28;90.90;97115.43;105316;1252;97757;-69
2023/01/09 08:08:50;;;;;;;11.10;6.70;;;;;;;7.32;90.73;97112.20;105226;1274;96615;-70
2023/01/09 08:11:17;;;;;;;10.50;6.10;;;;;;;7.35;90.73;97108.83;105357;1257;96686;-69
2023/01/09 08:13:44;;;;;;;11.40;5.80;;;;;;;7.40;90.68;97107.96;105110;1259;96554;-70
2023/01/09 08:16:11;;;;;;;9.70;5.40;;;;;;;7.45;90.53;97107.57;105230;1257;96626;-69
2023/01/09 08:18:38;;;;;;;8.80;4.50;;;;;;;7.49;90.43;97108.95;105273;1257;96561;-69
2023/01/09 08:21:05;;;;;;;13.80;6.50;;;;;;;7.49;90.33;97108.17;105276;1257;96536;-69
2023/01/09 08:23:32;;;;;;;7.50;3.90;;;;;;;7.49;90.54;97106.24;105182;1268;97879;-69
2023/01/09 08:26:00;;;;;;;6.90;3.80;;;;;;;7.46;90.47;97106.29;105302;1251;96558;-69
2023/01/09 08:28:27;;;;;;;7.30;4.90;;;;;;;7.41;90.46;97109.23;105372;1252;96567;-70
2023/01/09 08:30:54;;;;;;;13.90;10.30;;;;;;;7.37;90.39;97107.97;105279;1266;96594;-70
2023/01/09 08:33:22;;;;;;;6.90;4.50;;;;;;;7.33;90.47;97103.08;105379;1257;96589;-70
2023/01/09 08:35:49;;;;;;;6.10;4.30;;;;;;;7.34;90.45;97103.11;105454;1257;96565;-70
2023/01/09 08:38:16;;;;;;;7.70;4.10;;;;;;;7.34;90.47;97103.38;105375;1251;96523;-71
2023/01/09 08:40:45;;;;;;;8.00;4.50;;;;;;;7.36;90.50;97106.09;105360;1257;96477;-71
2023/01/09 08:48:49;;;;;;;6.10;4.10;;;;;;;7.42;90.30;97100.53;105327;1265;108239;-71
2023/01/09 08:51:15;;;;;;;9.40;6.50;;;;;;;7.45;89.95;97100.11;105164;1255;96607;-71
2023/01/09 08:53:42;;;;;;;12.90;7.10;;;;;;;7.49;90.26;97102.05;105378;1258;96587;-71
2023/01/09 08:56:09;;;;;;;8.80;5.20;;;;;;;7.53;89.99;97105.77;105220;1264;96580;-71
2023/01/09 08:58:36;;;;;;;8.50;5.00;;;;;;;7.58;89.95;97112.09;105320;1258;96507;-71
2023/01/09 09:01:05;;;;;;;10.70;5.30;;;;;;;7.62;90.12;97110.68;105358;1257;97076;-72
2023/01/09 09:03:32;;;;;;;11.10;6.10;;;;;;;7.65;90.40;97108.64;105456;1254;96474;-72
2023/01/09 09:05:59;;;;;;;10.50;5.40;;;;;;;7.70;90.12;97108.86;105400;1257;96537;-73
2023/01/09 09:08:26;;;;;;;10.60;5.30;;;;;;;7.69;89.87;97104.41;105317;1251;96613;-73
2023/01/09 09:10:53;;;;;;;9.50;4.60;;;;;;;7.67;90.08;97105.36;105378;1251;97853;-72
2023/01/09 09:13:20;;;;;;;27.80;8.40;;;;;;;7.67;90.09;97102.39;105389;1257;96631;-71
2023/01/09 09:15:47;;;;;;;61.20;20.80;;;;;;;7.69;90.01;97105.19;105435;1257;97750;-72
2023/01/09 09:18:14;;;;;;;75.10;24.30;;;;;;;7.73;90.10;97109.39;105234;1251;110599;-69
2023/01/09 09:20:41;;;;;;;113.40;36.80;;;;;;;7.78;89.97;97114.16;105278;1265;96535;-69
2023/01/09 09:23:08;;;;;;;176.30;54.30;;;;;;;7.83;89.97;97113.54;105270;1257;98002;-70
2023/01/09 09:25:37;;;;;;;87.80;29.90;;;;;;;7.88;89.88;97107.42;105276;1255;96551;-69
2023/01/09 09:28:05;;;;;;;95.80;43.60;;;;;;;7.93;89.45;97106.61;105274;1256;98107;-70
2023/01/09 09:30:33;;;;;;;38.80;17.50;;;;;;;8.00;89.59;97102.41;105419;1257;110970;-70
2023/01/09 09:33:03;;;;;;;50.80;23.10;;;;;;;8.08;89.57;97101.27;105327;1264;99143;-71
2023/01/09 09:35:32;;;;;;;40.20;14.70;;;;;;;8.16;89.86;97104.50;105329;1257;108614;-69
2023/01/09 09:38:01;;;;;;;31.00;14.10;;;;;;;8.23;89.68;97099.54;105185;1257;97352;-71
2023/01/09 09:40:50;;;;;;;27.40;13.60;;;;;;;8.31;89.86;97101.41;105256;1257;96575;-69
2023/01/09 09:47:10;;;;;;;16.40;9.00;;;;;;;8.35;90.38;97103.52;105104;1260;98994;-69
2023/01/09 09:50:13;;;;;;;14.10;8.30;;;;;;;8.39;90.53;97100.20;104684;1260;108636;-68
2023/01/09 09:53:09;;;;;;;16.10;8.70;;;;;;;8.41;89.99;97099.98;104139;1266;96558;-68
2023/01/09 09:55:39;;;;;;;18.30;10.70;;;;;;;8.47;90.12;97098.23;104132;1281;97068;-68
2023/01/09 09:58:37;;;;;;;24.30;12.80;;;;;;;8.55;90.58;97094.20;103967;1266;109949;-69
2023/01/09 10:01:06;;;;;;;28.30;17.00;;;;;;;8.60;90.31;97095.95;103860;1275;99255;-69
2023/01/09 10:03:48;;;;;;;32.10;18.60;;;;;;;8.64;90.09;97091.09;103680;1277;108632;-69
2023/01/09 10:07:08;;;;;;;42.60;25.70;;;;;;;8.67;90.18;97095.02;103808;1276;98123;-71
2023/01/09 10:09:57;;;;;;;34.50;20.40;;;;;;;8.74;90.49;97093.93;103179;1283;96695;-70
2023/01/09 10:12:44;;;;;;;44.90;25.00;;;;;;;8.84;90.47;97094.29;103206;1284;109882;-69
2023/01/09 10:15:28;;;;;;;43.40;24.40;;;;;;;8.86;90.24;97092.42;103103;1283;98821;-69
2023/01/09 10:18:25;;;;;;;42.10;25.10;;;;;;;8.90;90.44;97090.98;103272;1277;108702;-69
2023/01/09 10:21:00;;;;;;;37.20;21.60;;;;;;;8.94;90.43;97090.31;102871;1299;96597;-68
2023/01/09 10:23:49;;;;;;;39.00;21.20;;;;;;;8.96;90.40;97086.09;102876;1281;98285;-70
2023/01/09 10:26:28;;;;;;;52.20;25.20;;;;;;;9.05;90.57;97084.41;103275;1283;111115;-70
2023/01/09 10:29:20;;;;;;;68.60;28.40;;;;;;;9.11;89.90;97085.54;103692;1280;97982;-70
2023/01/09 10:31:51;;;;;;;47.10;19.90;;;;;;;9.14;89.55;97089.69;104315;1266;108834;-70
2023/01/09 10:34:38;;;;;;;;;;;;;;;9.15;89.09;97089.64;104245;1266;96819;-69
2023/01/09 10:37:05;;;;;;;32.90;14.90;;;;;;;9.12;89.25;97087.39;104271;1266;96804;-70
2023/01/09 10:39:46;;;;;;;33.90;14.50;;;;;;;9.14;89.17;97088.91;104758;1265;97741;-70
2023/01/09 10:42:51;;;;;;;26.50;12.10;;;;;;;9.12;88.84;97088.29;105702;1256;99244;-70
2023/01/09 10:45:19;;;;;;;39.00;16.50;;;;;;;9.09;89.04;97083.90;105347;1257;109686;-71
2023/01/09 10:47:48;;;;;;;20.90;10.60;;;;;;;9.06;88.87;97083.42;105243;1257;97463;-72
2023/01/09 10:50:22;;;;;;;46.80;18.50;;;;;;;9.02;88.43;97083.32;105202;1257;96565;-71
2023/01/09 10:52:52;;;;;;;25.00;12.40;;;;;;;8.96;88.37;97083.91;105095;1257;110952;-71
2023/01/09 10:55:58;;;;;;;31.90;13.40;;;;;;;8.91;88.71;97078.67;105055;1257;98853;-71
2023/01/09 10:58:26;;;;;;;18.90;9.10;;;;;;;8.87;89.08;97080.81;104432;1280;109270;-71
2023/01/09 11:00:55;;;;;;;23.50;11.70;;;;;;;8.85;88.66;97080.42;104459;1260;97930;-70
2023/01/09 11:03:27;;;;;;;25.40;10.60;;;;;;;8.85;88.80;97082.44;104561;1270;97745;-70
2023/01/09 11:05:57;;;;;;;40.10;19.30;;;;;;;8.84;88.63;97084.45;104321;1281;108619;-70
2023/01/09 11:08:40;;;;;;;28.40;13.50;;;;;;;8.85;88.77;97081.52;104464;1270;98393;-70
2023/01/09 11:11:09;;;;;;;28.00;12.00;;;;;;;8.82;88.53;97083.61;104652;1263;108306;-69
2023/01/09 11:13:42;;;;;;;12.30;5.40;;;;;;;8.78;88.48;97080.77;104572;1264;97750;-68
2023/01/09 11:16:09;;;;;;;13.20;6.00;;;;;;;8.75;88.38;97080.92;104685;1258;97111;-70
2023/01/09 11:18:48;;;;;;;14.40;7.20;;;;;;;8.72;88.33;97075.80;104443;1263;96556;-70
2023/01/09 11:21:36;;;;;;;16.00;6.50;;;;;;;8.68;88.33;97080.52;104589;1266;98196;-68
2023/01/09 11:24:24;;;;;;;12.70;5.20;;;;;;;8.61;88.24;97082.64;104474;1264;107443;-69
2023/01/09 11:27:11;;;;;;;9.90;3.90;;;;;;;8.54;88.37;97084.98;104691;1263;96798;-70
2023/01/09 11:29:42;;;;;;;8.70;4.30;;;;;;;8.45;88.47;97078.73;104577;1260;96996;-69
2023/01/09 11:32:22;;;;;;;11.60;5.60;;;;;;;8.39;88.56;97081.04;104970;1262;111070;-69
2023/01/09 11:34:49;;;;;;;13.20;6.40;;;;;;;8.36;89.05;97086.46;105329;1251;99150;-69
2023/01/09 11:37:28;;;;;;;8.60;4.40;;;;;;;8.32;89.20;97080.79;105054;1257;97832;-66
2023/01/09 11:39:57;;;;;;;13.40;6.00;;;;;;;8.28;89.37;97077.23;105047;1260;97069;-67
2023/01/09 11:45:22;;;;;;;15.10;6.30;;;;;;;8.24;89.30;97079.67;105217;1256;110868;-67
2023/01/09 11:47:49;;;;;;;11.20;5.80;;;;;;;8.23;89.47;97075.11;105346;1251;100091;-68
2023/01/09 11:50:22;;;;;;;10.60;5.10;;;;;;;8.23;89.44;97071.68;105156;1272;96621;-69
2023/01/09 11:53:14;;;;;;;7.50;3.80;;;;;;;8.22;89.48;97071.73;105240;1251;96558;-69